createdAt,value
2023-03-04T00:04:56.375Z,1018.6
2023-03-04T00:11:02.325Z,1018.7
2023-03-04T00:17:08.116Z,1018.8
2023-03-04T00:23:13.899Z,1018.7
2023-03-04T00:29:20.099Z,1018.8
2023-03-04T00:35:26.512Z,1018.7
2023-03-04T00:41:32.453Z,1018.8
2023-03-04T00:47:38.645Z,1018.8
2023-03-04T00:53:44.841Z,1018.8
2023-03-04T00:59:50.804Z,1018.8
2023-03-04T01:05:56.806Z,1018.8
2023-03-04T01:12:02.563Z,1018.6
2023-03-04T01:18:08.819Z,1018.6
2023-03-04T01:24:14.729Z,1018.5
2023-03-04T01:30:20.911Z,1018.5
2023-03-04T01:36:26.683Z,1018.5
2023-03-04T01:42:32.452Z,1018.4
2023-03-04T01:48:38.310Z,1018.4
2023-03-04T01:54:43.800Z,1018.3
2023-03-04T02:00:49.606Z,1018.2
2023-03-04T02:06:55.645Z,1018.2
2023-03-04T02:13:01.761Z,1018.2
2023-03-04T02:19:07.522Z,1018.1
2023-03-04T02:25:13.931Z,1018
2023-03-04T02:31:19.750Z,1018
2023-03-04T02:37:25.499Z,1018
2023-03-04T02:43:31.455Z,1018
2023-03-04T02:49:36.840Z,1018
2023-03-04T02:55:42.813Z,1018
2023-03-04T03:01:48.829Z,1018
2023-03-04T03:07:54.783Z,1018
2023-03-04T03:14:00.988Z,1017.9
2023-03-04T03:20:07.444Z,1018
2023-03-04T03:26:13.323Z,1018
2023-03-04T03:32:19.344Z,1018
2023-03-04T03:38:25.597Z,1018.1
2023-03-04T03:44:31.483Z,1018.1
2023-03-04T03:50:37.476Z,1018
2023-03-04T03:56:43.645Z,1018
2023-03-04T04:02:49.240Z,1018
2023-03-04T04:08:54.677Z,1018
2023-03-04T04:15:01.604Z,1018
2023-03-04T04:21:07.389Z,1018
2023-03-04T04:27:13.575Z,1018
2023-03-04T04:33:19.600Z,1018.1
2023-03-04T04:39:25.516Z,1018
2023-03-04T04:45:31.368Z,1018
2023-03-04T04:51:36.861Z,1018
2023-03-04T04:57:42.841Z,1017.9
2023-03-04T05:03:48.718Z,1018
2023-03-04T05:09:54.885Z,1018
2023-03-04T05:16:00.509Z,1018
2023-03-04T05:22:06.375Z,1018
2023-03-04T05:28:12.582Z,1018
2023-03-04T05:34:18.167Z,1018
2023-03-04T05:40:24.530Z,1018
2023-03-04T05:46:33.181Z,1018
2023-03-04T05:52:39.248Z,1018.1
2023-03-04T05:58:45.136Z,1018.1
2023-03-04T06:04:51.204Z,1018.2
2023-03-04T06:10:56.816Z,1018.2
2023-03-04T06:17:02.865Z,1018.2
2023-03-04T06:23:09.068Z,1018.3
2023-03-04T06:29:14.850Z,1018.4
2023-03-04T06:35:21.066Z,1018.4
2023-03-04T06:41:27.213Z,1018.5
2023-03-04T06:47:32.974Z,1018.5
2023-03-04T06:53:39.177Z,1018.4
2023-03-04T06:59:45.126Z,1018.5
2023-03-04T07:05:51.125Z,1018.5
2023-03-04T07:11:56.692Z,1018.6
2023-03-04T07:18:02.054Z,1018.6
2023-03-04T07:24:08.085Z,1018.6
2023-03-04T07:30:13.853Z,1018.7
2023-03-04T07:36:20.228Z,1018.7
2023-03-04T07:42:26.228Z,1018.8
2023-03-04T07:48:31.976Z,1018.8
2023-03-04T07:54:38.184Z,1018.9
2023-03-04T08:00:44.130Z,1018.9
2023-03-04T08:06:50.134Z,1019
2023-03-04T08:12:55.714Z,1019.1
2023-03-04T08:19:01.491Z,1019
2023-03-04T08:25:07.472Z,1019.1
2023-03-04T08:31:14.347Z,1019.1
2023-03-04T08:37:20.652Z,1019
2023-03-04T08:43:26.691Z,1019.1
2023-03-04T08:49:32.810Z,1019
2023-03-04T08:55:39.014Z,1019
2023-03-04T09:01:45.044Z,1019.1
2023-03-04T09:07:51.615Z,1019.1
2023-03-04T09:13:57.411Z,1019
2023-03-04T09:20:06.252Z,1019
2023-03-04T09:26:12.403Z,1018.9
2023-03-04T09:32:19.059Z,1018.9
2023-03-04T09:38:25.182Z,1018.8
2023-03-04T09:44:31.178Z,1018.8
2023-03-04T09:50:37.131Z,1018.8
2023-03-04T09:56:43.122Z,1018.8
2023-03-04T10:02:49.086Z,1018.8
2023-03-04T10:08:55.295Z,1018.8
2023-03-04T10:15:01.087Z,1018.7
2023-03-04T10:21:06.932Z,1018.6
2023-03-04T10:27:12.610Z,1018.6
2023-03-04T10:33:19.012Z,1018.5
2023-03-04T10:39:25.164Z,1018.5
2023-03-04T10:45:31.295Z,1018.5
2023-03-04T10:51:37.345Z,1018.4
2023-03-04T10:57:43.313Z,1018.4
2023-03-04T11:03:49.562Z,1018.3
2023-03-04T11:09:57.993Z,1018.3
2023-03-04T11:16:04.226Z,1018.3
2023-03-04T11:22:10.304Z,1018.2
2023-03-04T11:28:16.301Z,1018.2
2023-03-04T11:34:22.109Z,1018.2
2023-03-04T11:40:28.921Z,1018.2
2023-03-04T11:46:35.092Z,1018.1
2023-03-04T11:52:41.711Z,1018.1
2023-03-04T11:58:47.971Z,1018.1
2023-03-04T12:04:54.105Z,1018
2023-03-04T12:11:00.683Z,1017.9
2023-03-04T12:17:05.922Z,1017.9
2023-03-04T12:23:11.616Z,1017.8
2023-03-04T12:29:17.917Z,1017.7
2023-03-04T12:35:25.032Z,1017.6
2023-03-04T12:41:30.787Z,1017.5
2023-03-04T12:47:36.600Z,1017.5
2023-03-04T12:53:42.928Z,1017.5
2023-03-04T12:59:48.493Z,1017.4
2023-03-04T13:05:54.489Z,1017.3
2023-03-04T13:12:00.888Z,1017.2
2023-03-04T13:18:07.075Z,1017.2
2023-03-04T13:24:13.272Z,1017.1
2023-03-04T13:30:19.441Z,1017.1
2023-03-04T13:36:25.436Z,1017.1
2023-03-04T13:42:31.595Z,1017
2023-03-04T13:48:38.028Z,1017
2023-03-04T13:54:43.832Z,1017
2023-03-04T14:00:49.762Z,1017
2023-03-04T14:06:56.157Z,1017
2023-03-04T14:13:01.917Z,1016.9
2023-03-04T14:19:08.118Z,1016.9
2023-03-04T14:25:14.522Z,1016.8
2023-03-04T14:31:20.309Z,1016.9
2023-03-04T14:37:26.037Z,1016.8
2023-03-04T14:43:32.424Z,1016.7
2023-03-04T14:49:38.429Z,1016.8
2023-03-04T14:55:44.411Z,1016.8
2023-03-04T15:01:50.805Z,1016.8
2023-03-04T15:07:56.999Z,1016.8
2023-03-04T15:14:03.186Z,1016.8
2023-03-04T15:20:09.419Z,1016.7
2023-03-04T15:26:15.545Z,1016.7
2023-03-04T15:32:21.997Z,1016.7
2023-03-04T15:38:28.346Z,1016.8
2023-03-04T15:44:35.140Z,1016.8
2023-03-04T15:50:40.889Z,1016.8
2023-03-04T15:56:47.089Z,1016.8
2023-03-04T16:02:53.077Z,1016.8
2023-03-04T16:08:59.264Z,1016.9
2023-03-04T16:15:07.704Z,1017
2023-03-04T16:21:13.124Z,1017
2023-03-04T16:27:19.270Z,1017
2023-03-04T16:33:25.488Z,1017.1
2023-03-04T16:39:31.430Z,1017
2023-03-04T16:45:37.195Z,1017.1
2023-03-04T16:51:43.382Z,1017.1
2023-03-04T16:57:49.153Z,1017.2
2023-03-04T17:03:55.138Z,1017.2
2023-03-04T17:10:01.325Z,1017.2
2023-03-04T17:16:07.631Z,1017.3
2023-03-04T17:22:13.967Z,1017.5
2023-03-04T17:28:19.880Z,1017.6
2023-03-04T17:34:26.278Z,1017.6
2023-03-04T17:40:31.650Z,1017.7
2023-03-04T17:46:38.525Z,1017.7
2023-03-04T17:52:44.409Z,1017.8
2023-03-04T17:58:50.614Z,1017.8
2023-03-04T18:04:57.210Z,1017.9
2023-03-04T18:11:03.177Z,1017.9
2023-03-04T18:17:09.178Z,1017.9
2023-03-04T18:23:15.761Z,1018.1
2023-03-04T18:29:21.957Z,1018.1
2023-03-04T18:35:27.944Z,1018.1
2023-03-04T18:41:33.729Z,1018.2
2023-03-04T18:47:39.693Z,1018.2
2023-03-04T18:53:46.085Z,1018.2
2023-03-04T18:59:52.688Z,1018.2
2023-03-04T19:05:59.080Z,1018.3
2023-03-04T19:12:04.861Z,1018.4
2023-03-04T19:18:11.052Z,1018.4
2023-03-04T19:24:17.420Z,1018.5
2023-03-04T19:30:23.629Z,1018.5
2023-03-04T19:36:29.614Z,1018.4
2023-03-04T19:42:35.799Z,1018.4
2023-03-04T19:48:41.828Z,1018.4
2023-03-04T19:54:48.146Z,1018.5
2023-03-04T20:00:53.953Z,1018.5
2023-03-04T20:06:59.771Z,1018.4
2023-03-04T20:13:06.286Z,1018.4
2023-03-04T20:19:12.480Z,1018.5
2023-03-04T20:25:18.470Z,1018.5
2023-03-04T20:31:24.599Z,1018.5
2023-03-04T20:37:30.639Z,1018.4
2023-03-04T20:43:36.628Z,1018.4
2023-03-04T20:49:42.999Z,1018.4
2023-03-04T20:55:49.040Z,1018.4
2023-03-04T21:01:55.090Z,1018.3
2023-03-04T21:08:01.367Z,1018.3
2023-03-04T21:14:07.139Z,1018.2
2023-03-04T21:20:12.703Z,1018.2
2023-03-04T21:26:18.700Z,1018.1
2023-03-04T21:32:27.055Z,1018.2
2023-03-04T21:38:33.532Z,1018.2
2023-03-04T21:44:51.885Z,1018.1
2023-03-04T21:50:58.197Z,1018
2023-03-04T21:57:03.477Z,1017.9
2023-03-04T22:03:09.572Z,1017.8
2023-03-04T22:09:15.396Z,1017.7
2023-03-04T22:15:21.732Z,1017.7
2023-03-04T22:21:27.919Z,1017.5
2023-03-04T22:27:33.768Z,1017.5
2023-03-04T22:33:39.760Z,1017.5
2023-03-04T22:39:45.655Z,1017.4
2023-03-04T22:45:51.376Z,1017.4
2023-03-04T22:51:57.208Z,1017.5
2023-03-04T22:58:02.770Z,1017.5
2023-03-04T23:04:08.796Z,1017.6
2023-03-04T23:10:14.775Z,1017.6
2023-03-04T23:16:21.219Z,1017.6
2023-03-04T23:22:27.327Z,1017.5
2023-03-04T23:28:33.123Z,1017.5
2023-03-04T23:34:39.295Z,1017.4
2023-03-04T23:40:45.501Z,1017.4
2023-03-04T23:46:51.120Z,1017.3
2023-03-04T23:52:56.880Z,1017.3
2023-03-04T23:59:03.000Z,1017.3
